Time;durP1;ratioP1;P1;durP2;ratioP2;P2;SDS_P1;SDS_P2;PMS_P1;PMS_P2;Temp;Humidity;BMP_temperature;BMP_pressure;BME280_temperature;BME280_humidity;BME280_pressure;Samples;Min_cycle;Max_cycle;Signal;HPM_P1;HPM_P2
2021/01/11 00:02:06;;;;;;;54.85;25.92;;;13.50;66.00;;;;;;5050025;28;20042;-77
2021/01/11 00:04:37;;;;;;;57.20;25.25;;;13.50;66.00;;;;;;5051447;28;20064;-78
2021/01/11 00:07:03;;;;;;;60.85;27.73;;;13.50;66.00;;;;;;5031868;28;20489;-78
2021/01/11 00:09:34;;;;;;;63.85;25.60;;;13.50;66.00;;;;;;5034962;28;20025;-78
2021/01/11 00:12:10;;;;;;;63.83;26.67;;;13.50;66.00;;;;;;5048852;28;20025;-77
2021/01/11 00:14:47;;;;;;;56.88;25.90;;;13.50;66.10;;;;;;5048620;28;20455;-77
2021/01/11 00:17:18;;;;;;;60.70;26.20;;;13.50;66.00;;;;;;5051369;28;20021;-77
2021/01/11 00:19:44;;;;;;;56.05;25.63;;;13.50;66.10;;;;;;5049136;28;20347;-77
2021/01/11 00:22:15;;;;;;;60.10;26.42;;;13.50;66.10;;;;;;5036062;28;20466;-77
2021/01/11 00:24:50;;;;;;;57.42;27.08;;;13.50;66.10;;;;;;5052342;28;20502;-76
2021/01/11 00:27:19;;;;;;;57.65;26.92;;;13.50;66.10;;;;;;5037274;28;20043;-77
2021/01/11 00:29:50;;;;;;;59.38;25.98;;;13.50;66.10;;;;;;5033649;28;20450;-77
2021/01/11 00:32:22;;;;;;;53.75;25.25;;;13.50;66.10;;;;;;5041673;28;20032;-76
2021/01/11 00:35:01;;;;;;;51.72;25.15;;;13.50;66.10;;;;;;5034080;28;20040;-77
2021/01/11 00:37:27;;;;;;;54.63;25.15;;;13.50;66.10;;;;;;5029235;28;20104;-76
2021/01/11 00:39:53;;;;;;;59.60;26.67;;;13.50;66.10;;;;;;5033305;28;20132;-77
2021/01/11 00:42:18;;;;;;;54.67;24.38;;;13.50;66.10;;;;;;5029612;28;20427;-77
2021/01/11 00:44:48;;;;;;;51.00;25.02;;;13.50;66.10;;;;;;5030874;28;20511;-77
2021/01/11 00:47:14;;;;;;;54.35;25.70;;;13.50;66.20;;;;;;5033806;28;20031;-77
2021/01/11 00:49:48;;;;;;;55.50;24.90;;;13.50;66.10;;;;;;5035040;28;20025;-76
2021/01/11 00:52:14;;;;;;;59.88;27.33;;;13.50;66.10;;;;;;5023126;28;20124;-77
2021/01/11 00:55:15;;;;;;;56.88;24.67;;;13.50;66.20;;;;;;5049549;28;20112;-78
2021/01/11 00:57:48;;;;;;;58.17;25.48;;;13.50;66.20;;;;;;5037109;28;20061;-77
2021/01/11 01:00:19;;;;;;;54.58;24.98;;;13.40;66.20;;;;;;5029160;28;20025;-77
2021/01/11 01:02:46;;;;;;;50.15;24.40;;;13.50;66.20;;;;;;5035773;28;20078;-77
2021/01/11 01:05:16;;;;;;;61.30;25.63;;;13.40;66.20;;;;;;5053380;28;20471;-77
2021/01/11 01:07:48;;;;;;;52.10;23.10;;;13.50;66.20;;;;;;5035358;28;20043;-76
2021/01/11 01:10:19;;;;;;;52.20;24.58;;;13.40;66.20;;;;;;5032026;28;20455;-77
2021/01/11 01:12:47;;;;;;;53.75;25.13;;;13.40;66.20;;;;;;5043998;28;20060;-76
2021/01/11 01:15:18;;;;;;;;;;;13.40;66.20;;;;;;5047791;28;20029;-77
2021/01/11 01:17:48;;;;;;;50.30;23.15;;;13.40;66.20;;;;;;5036400;28;19948;-78
2021/01/11 01:20:17;;;;;;;56.40;24.92;;;13.40;66.20;;;;;;5034677;28;20020;-77
2021/01/11 01:22:50;;;;;;;56.25;25.50;;;13.40;66.20;;;;;;5030008;28;20120;-76
2021/01/11 01:25:25;;;;;;;53.40;24.33;;;13.40;66.20;;;;;;5048932;28;20370;-77
2021/01/11 01:28:06;;;;;;;49.22;22.52;;;13.40;66.20;;;;;;5047845;28;20033;-76
2021/01/11 01:30:55;;;;;;;51.90;23.85;;;13.40;66.20;;;;;;5049660;28;20133;-76
2021/01/11 01:33:20;;;;;;;;;;;13.40;66.20;;;;;;5032451;28;20029;-77
2021/01/11 01:35:52;;;;;;;54.15;23.45;;;13.40;66.30;;;;;;5051641;28;20304;-77
2021/01/11 01:38:30;;;;;;;53.70;23.67;;;13.40;66.30;;;;;;5042858;28;20478;-77
2021/01/11 01:41:02;;;;;;;52.97;24.33;;;13.40;66.30;;;;;;5032316;28;20026;-77
2021/01/11 01:43:32;;;;;;;51.33;23.80;;;13.40;66.30;;;;;;5050383;28;20035;-76
2021/01/11 01:46:05;;;;;;;51.35;24.60;;;13.40;66.30;;;;;;5046491;28;20037;-77
2021/01/11 01:48:35;;;;;;;51.22;23.63;;;13.40;66.40;;;;;;5033766;28;20063;-77
2021/01/11 01:51:01;;;;;;;46.33;24.50;;;13.40;66.40;;;;;;5050859;28;20037;-76
2021/01/11 01:53:27;;;;;;;51.83;23.05;;;13.40;66.40;;;;;;5050257;28;20041;-76
2021/01/11 01:55:54;;;;;;;50.35;22.63;;;13.40;66.30;;;;;;5041079;28;20132;-76
2021/01/11 01:58:37;;;;;;;44.72;22.45;;;13.40;66.30;;;;;;5032548;28;20064;-77
2021/01/11 02:01:10;;;;;;;50.83;21.33;;;13.40;66.40;;;;;;5042691;28;20075;-77
2021/01/11 02:03:35;;;;;;;50.28;23.30;;;13.40;66.30;;;;;;5042427;28;20033;-77
2021/01/11 02:06:07;;;;;;;43.78;21.77;;;13.40;66.30;;;;;;5046554;28;20452;-77
2021/01/11 02:08:45;;;;;;;44.70;22.90;;;13.40;66.30;;;;;;5027627;28;20103;-78
2021/01/11 02:11:35;;;;;;;;;;;13.30;66.30;;;;;;5033536;28;20024;-76
2021/01/11 02:14:26;;;;;;;44.22;21.13;;;13.40;66.40;;;;;;5043607;28;19916;-79
2021/01/11 02:17:31;;;;;;;48.95;21.42;;;13.40;66.40;;;;;;5038435;28;20017;-78
2021/01/11 02:20:16;;;;;;;45.63;22.40;;;13.30;66.40;;;;;;4984845;28;20033;-77
2021/01/11 02:23:19;;;;;;;50.45;22.08;;;13.40;66.40;;;;;;5030397;28;20382;-78
2021/01/11 02:26:10;;;;;;;48.13;21.52;;;13.30;66.50;;;;;;5047635;28;20021;-77
2021/01/11 02:29:17;;;;;;;50.10;22.73;;;13.30;66.40;;;;;;5027522;28;20111;-77
2021/01/11 02:31:54;;;;;;;47.63;21.73;;;13.30;66.40;;;;;;5046343;28;20064;-77
2021/01/11 02:34:22;;;;;;;45.13;21.50;;;13.40;66.50;;;;;;5032917;28;20048;-77
2021/01/11 02:36:54;;;;;;;51.55;22.38;;;13.30;66.40;;;;;;5030114;28;20486;-78
2021/01/11 02:39:24;;;;;;;51.83;22.15;;;13.30;66.40;;;;;;5033440;28;20083;-77
2021/01/11 02:42:11;;;;;;;46.95;21.33;;;13.30;66.50;;;;;;5035386;28;20029;-77
2021/01/11 02:44:47;;;;;;;42.83;21.67;;;13.30;66.40;;;;;;5050970;28;20017;-77
2021/01/11 02:47:38;;;;;;;44.53;22.05;;;13.30;66.50;;;;;;5029321;28;20067;-78
2021/01/11 02:50:24;;;;;;;44.75;21.20;;;13.30;66.50;;;;;;5051347;28;20017;-78
2021/01/11 02:53:19;;;;;;;46.22;21.02;;;13.30;66.50;;;;;;5034579;28;20032;-77
2021/01/11 02:55:58;;;;;;;48.78;21.88;;;13.30;66.50;;;;;;5033549;28;20057;-77
2021/01/11 02:58:52;;;;;;;47.83;21.83;;;13.30;66.50;;;;;;5036115;28;20029;-77
2021/01/11 03:01:18;;;;;;;45.13;21.40;;;13.30;66.50;;;;;;5031845;28;20114;-77
2021/01/11 03:03:48;;;;;;;43.30;21.52;;;13.30;66.50;;;;;;5034805;28;20160;-77
2021/01/11 03:06:31;;;;;;;42.53;20.42;;;13.30;66.50;;;;;;5050595;28;20021;-76
2021/01/11 03:09:08;;;;;;;46.65;21.48;;;13.30;66.50;;;;;;5037558;28;20040;-77
2021/01/11 03:11:35;;;;;;;41.88;20.38;;;13.30;66.50;;;;;;5036529;28;20112;-78
2021/01/11 03:14:09;;;;;;;39.33;20.38;;;13.30;66.50;;;;;;5026474;28;20022;-77
2021/01/11 03:16:48;;;;;;;46.97;21.42;;;13.30;66.50;;;;;;5036443;28;20037;-77
2021/01/11 03:19:14;;;;;;;44.47;20.42;;;13.30;66.50;;;;;;5036062;28;20485;-77
2021/01/11 03:21:43;;;;;;;46.60;21.77;;;13.30;66.50;;;;;;5044237;28;20064;-77
2021/01/11 03:24:15;;;;;;;43.28;21.80;;;13.30;66.50;;;;;;5048347;28;20025;-77
2021/01/11 03:26:44;;;;;;;40.67;20.25;;;13.30;66.50;;;;;;5050292;28;20021;-77
2021/01/11 03:29:15;;;;;;;44.88;21.08;;;13.30;66.50;;;;;;5031099;28;20044;-77
2021/01/11 03:31:46;;;;;;;46.17;20.63;;;13.30;66.50;;;;;;5034743;28;20079;-77
2021/01/11 03:34:27;;;;;;;43.90;21.10;;;13.30;66.50;;;;;;5033387;28;20021;-77
2021/01/11 03:37:07;;;;;;;46.80;22.15;;;13.30;66.50;;;;;;5035353;28;20467;-77
2021/01/11 03:39:37;;;;;;;42.47;21.13;;;13.30;66.50;;;;;;5051871;28;20032;-77
2021/01/11 03:42:08;;;;;;;48.78;21.92;;;13.30;66.50;;;;;;5033537;28;20104;-77
2021/01/11 03:44:40;;;;;;;44.92;20.50;;;13.30;66.50;;;;;;5026586;28;20025;-77
2021/01/11 03:47:05;;;;;;;43.60;20.42;;;13.30;66.50;;;;;;5041193;28;20026;-77
2021/01/11 03:49:43;;;;;;;44.13;20.15;;;13.30;66.50;;;;;;5052661;28;20028;-77
2021/01/11 03:52:13;;;;;;;47.20;20.67;;;13.30;66.50;;;;;;5028266;28;20070;-77
2021/01/11 03:54:43;;;;;;;41.10;19.73;;;13.30;66.50;;;;;;5034511;28;20364;-77
2021/01/11 03:57:14;;;;;;;45.75;21.33;;;13.30;66.50;;;;;;5008823;28;20021;-77
2021/01/11 03:59:44;;;;;;;42.25;20.33;;;13.30;66.50;;;;;;5026861;28;20045;-77
2021/01/11 04:02:50;;;;;;;44.85;20.92;;;13.30;66.50;;;;;;5007211;28;20045;-77
2021/01/11 04:05:22;;;;;;;45.05;20.40;;;13.30;66.50;;;;;;5029751;28;20029;-78
2021/01/11 04:08:02;;;;;;;41.42;19.83;;;13.30;66.50;;;;;;5015601;28;20087;-78
2021/01/11 04:10:31;;;;;;;45.95;21.35;;;13.30;66.60;;;;;;5025691;28;20030;-76
2021/01/11 04:12:56;;;;;;;44.85;22.00;;;13.30;66.50;;;;;;5010032;28;20060;-77
2021/01/11 04:15:25;;;;;;;39.88;20.10;;;13.30;66.50;;;;;;5016349;28;20065;-77
2021/01/11 04:17:55;;;;;;;41.83;20.77;;;13.30;66.50;;;;;;5026934;28;20029;-77
2021/01/11 04:20:21;;;;;;;40.60;19.77;;;13.30;66.50;;;;;;5030052;28;20030;-77
2021/01/11 04:22:52;;;;;;;41.15;19.85;;;13.30;66.60;;;;;;5011457;28;20036;-78
2021/01/11 04:25:24;;;;;;;41.78;19.73;;;13.30;66.50;;;;;;5011051;28;20112;-77
2021/01/11 04:27:54;;;;;;;42.90;20.45;;;13.30;66.50;;;;;;5010716;28;20025;-77
2021/01/11 04:30:20;;;;;;;40.75;20.27;;;13.30;66.50;;;;;;5013461;28;20173;-77
2021/01/11 04:32:57;;;;;;;46.42;20.75;;;13.30;66.60;;;;;;5013191;28;20045;-77
2021/01/11 04:35:25;;;;;;;38.05;19.25;;;13.30;66.50;;;;;;5028460;28;20481;-77
2021/01/11 04:37:57;;;;;;;45.80;20.40;;;13.30;66.60;;;;;;5033030;28;20022;-76
2021/01/11 04:40:33;;;;;;;36.60;18.65;;;13.30;66.50;;;;;;5014020;28;20108;-77
2021/01/11 04:43:06;;;;;;;37.85;19.70;;;13.30;66.50;;;;;;5013494;28;20061;-76
2021/01/11 04:45:32;;;;;;;41.03;19.75;;;13.30;66.60;;;;;;5030923;28;20021;-77
2021/01/11 04:48:02;;;;;;;40.38;19.95;;;13.30;66.60;;;;;;5025633;28;20076;-77
2021/01/11 04:50:29;;;;;;;42.30;19.75;;;13.30;66.50;;;;;;5022463;28;20059;-77
2021/01/11 04:53:14;;;;;;;36.90;18.92;;;13.30;66.60;;;;;;5015173;28;20033;-77
2021/01/11 04:55:47;;;;;;;39.88;19.98;;;13.30;66.50;;;;;;5031152;28;20072;-77
2021/01/11 04:58:17;;;;;;;38.25;19.33;;;13.30;66.50;;;;;;5045671;28;20021;-79
2021/01/11 05:00:59;;;;;;;34.75;18.35;;;13.30;66.50;;;;;;5030714;28;20029;-78
2021/01/11 05:03:30;;;;;;;36.00;18.15;;;13.30;66.50;;;;;;5048667;28;20083;-78
2021/01/11 05:06:01;;;;;;;35.90;18.25;;;13.30;66.50;;;;;;5048689;28;20035;-78
2021/01/11 05:08:36;;;;;;;40.00;18.92;;;13.30;66.50;;;;;;5043899;28;20020;-77
2021/01/11 05:11:07;;;;;;;39.38;18.30;;;13.30;66.50;;;;;;5029306;28;20021;-78
2021/01/11 05:13:47;;;;;;;38.08;17.77;;;13.30;66.60;;;;;;5048165;28;20108;-78
2021/01/11 05:16:22;;;;;;;40.35;19.27;;;13.30;66.60;;;;;;5033122;28;20071;-79
2021/01/11 05:19:00;;;;;;;34.63;17.88;;;13.30;66.50;;;;;;5043059;28;20021;-80
2021/01/11 05:21:42;;;;;;;39.45;19.05;;;13.30;66.60;;;;;;5029453;28;20450;-79
2021/01/11 05:24:36;;;;;;;37.72;18.55;;;13.30;66.60;;;;;;5032120;28;20091;-79
2021/01/11 05:27:07;;;;;;;35.55;17.52;;;13.30;66.60;;;;;;5039607;28;20442;-79
2021/01/11 05:29:44;;;;;;;36.28;19.35;;;13.30;66.60;;;;;;5046869;28;20203;-80
2021/01/11 05:32:10;;;;;;;40.53;18.65;;;13.30;66.60;;;;;;5044504;28;20032;-79
2021/01/11 05:34:52;;;;;;;30.77;16.55;;;13.30;66.60;;;;;;5047347;28;20029;-77
2021/01/11 05:37:44;;;;;;;37.95;17.52;;;13.30;66.60;;;;;;5047968;28;20032;-78
2021/01/11 05:40:17;;;;;;;33.40;17.88;;;13.30;66.50;;;;;;5028948;28;20044;-77
2021/01/11 05:42:50;;;;;;;42.05;19.05;;;13.30;66.60;;;;;;5025233;28;20086;-77
2021/01/11 05:45:21;;;;;;;35.20;17.70;;;13.30;66.60;;;;;;5031564;28;20519;-77
2021/01/11 05:48:13;;;;;;;35.78;17.27;;;13.30;66.60;;;;;;5030828;28;20374;-78
2021/01/11 05:50:51;;;;;;;40.22;18.17;;;13.30;66.60;;;;;;5045615;28;20036;-78
2021/01/11 05:53:26;;;;;;;36.53;18.15;;;13.30;66.60;;;;;;5049675;28;20045;-79
2021/01/11 05:55:53;;;;;;;37.63;17.20;;;13.30;66.60;;;;;;5032392;28;20519;-78
2021/01/11 05:58:21;;;;;;;40.60;18.73;;;13.30;66.60;;;;;;5051859;28;20325;-78
2021/01/11 06:00:51;;;;;;;36.65;17.00;;;13.30;66.60;;;;;;5032816;28;20017;-78
2021/01/11 06:03:21;;;;;;;34.67;17.17;;;13.30;66.60;;;;;;5027832;28;20040;-78
2021/01/11 06:05:46;;;;;;;40.92;17.85;;;13.30;66.60;;;;;;5048861;28;20056;-77
2021/01/11 06:08:15;;;;;;;32.05;16.05;;;13.20;66.60;;;;;;5028338;28;20025;-77
2021/01/11 06:10:44;;;;;;;34.90;17.60;;;13.30;66.60;;;;;;5033927;28;20095;-77
2021/01/11 06:13:27;;;;;;;34.30;17.77;;;13.20;66.60;;;;;;5032776;28;20036;-78
2021/01/11 06:16:15;;;;;;;34.83;16.48;;;13.30;66.60;;;;;;5031928;28;20029;-77
2021/01/11 06:18:47;;;;;;;36.80;17.70;;;13.30;66.60;;;;;;5043571;28;20026;-78
2021/01/11 06:21:19;;;;;;;36.30;17.10;;;13.20;66.60;;;;;;5031930;28;20128;-78
2021/01/11 06:23:50;;;;;;;35.70;17.33;;;13.20;66.60;;;;;;5034027;28;20126;-78
2021/01/11 06:26:25;;;;;;;37.85;17.35;;;13.30;66.60;;;;;;5049979;28;20072;-78
2021/01/11 06:28:55;;;;;;;31.48;15.68;;;13.30;66.60;;;;;;5048995;28;20025;-78
2021/01/11 06:31:50;;;;;;;34.00;17.23;;;13.30;66.60;;;;;;5047050;28;20024;-77
2021/01/11 06:34:38;;;;;;;34.30;17.52;;;13.30;66.60;;;;;;5029549;28;20033;-78
2021/01/11 06:37:20;;;;;;;33.43;17.07;;;13.20;66.60;;;;;;5025467;28;20029;-77
2021/01/11 06:39:49;;;;;;;32.35;16.42;;;13.20;66.70;;;;;;5039064;28;20020;-78
2021/01/11 06:42:22;;;;;;;35.08;16.70;;;13.20;66.60;;;;;;5030956;28;20474;-77
2021/01/11 06:44:53;;;;;;;32.92;16.27;;;13.30;66.70;;;;;;5032065;28;20526;-78
2021/01/11 06:47:27;;;;;;;35.30;16.77;;;13.30;66.60;;;;;;5031676;28;20071;-80
2021/01/11 06:50:10;;;;;;;32.67;16.92;;;13.20;66.60;;;;;;5040126;28;20458;-78
2021/01/11 06:52:44;;;;;;;35.00;16.42;;;13.20;66.60;;;;;;5024653;28;20032;-78
2021/01/11 06:55:19;;;;;;;35.47;17.25;;;13.30;66.70;;;;;;5027632;28;20037;-78
2021/01/11 06:58:01;;;;;;;33.30;16.90;;;13.20;66.60;;;;;;5044188;28;20033;-79
2021/01/11 07:00:38;;;;;;;29.83;15.75;;;13.20;66.60;;;;;;5041076;28;20071;-78
2021/01/11 07:03:09;;;;;;;32.65;17.10;;;13.30;66.70;;;;;;5030227;28;20083;-79
2021/01/11 07:05:35;;;;;;;30.17;16.17;;;13.20;66.70;;;;;;5026264;28;20040;-79
2021/01/11 07:08:14;;;;;;;31.77;16.10;;;13.20;66.60;;;;;;5046105;28;20021;-79
2021/01/11 07:10:47;;;;;;;33.65;17.02;;;13.20;66.60;;;;;;5049490;28;20369;-79
2021/01/11 07:13:18;;;;;;;31.77;16.45;;;13.20;66.70;;;;;;5045852;28;20036;-79
2021/01/11 07:15:53;;;;;;;33.75;15.85;;;13.20;66.70;;;;;;5048395;28;20028;-79
2021/01/11 07:18:40;;;;;;;32.97;17.15;;;13.20;66.70;;;;;;5025766;28;20501;-78
2021/01/11 07:21:21;;;;;;;36.03;16.23;;;13.30;66.70;;;;;;5046638;28;20021;-78
2021/01/11 07:23:52;;;;;;;28.83;15.15;;;13.20;66.60;;;;;;5028429;28;20478;-78
2021/01/11 07:26:23;;;;;;;30.52;15.52;;;13.20;66.60;;;;;;5036033;28;20422;-78
2021/01/11 07:28:59;;;;;;;29.95;16.52;;;13.20;66.60;;;;;;5046006;28;20035;-78
2021/01/11 07:31:33;;;;;;;35.83;17.45;;;13.20;66.60;;;;;;5032143;28;20099;-78
2021/01/11 07:34:11;;;;;;;31.25;16.00;;;13.20;66.60;;;;;;5044556;28;20371;-78
2021/01/11 07:36:47;;;;;;;31.98;17.00;;;13.20;66.60;;;;;;5027011;28;20025;-78
2021/01/11 07:39:20;;;;;;;33.53;16.92;;;13.20;66.60;;;;;;5036721;28;20459;-77
2021/01/11 07:41:48;;;;;;;30.95;15.30;;;13.20;66.60;;;;;;5052234;28;20056;-78
2021/01/11 07:44:37;;;;;;;29.08;15.55;;;13.20;66.60;;;;;;5029558;28;20032;-77
2021/01/11 07:47:18;;;;;;;30.70;15.15;;;13.20;66.60;;;;;;5052540;28;20029;-77
2021/01/11 07:49:55;;;;;;;28.90;14.50;;;13.20;66.60;;;;;;5051813;28;20027;-78
2021/01/11 07:52:22;;;;;;;33.47;15.98;;;13.20;66.60;;;;;;5032349;28;20038;-78
2021/01/11 07:55:04;;;;;;;34.70;16.23;;;13.20;66.60;;;;;;5026830;28;20399;-78
2021/01/11 07:57:37;;;;;;;30.13;14.68;;;13.20;66.50;;;;;;5012076;28;20021;-80
2021/01/11 08:00:10;;;;;;;27.05;15.23;;;13.20;66.50;;;;;;5026047;28;20470;-78
2021/01/11 08:02:57;;;;;;;32.15;16.75;;;13.20;66.50;;;;;;5033539;28;20033;-79
2021/01/11 08:05:25;;;;;;;32.10;15.45;;;13.20;66.50;;;;;;5012375;28;20032;-77
2021/01/11 08:08:09;;;;;;;32.13;16.52;;;13.20;66.50;;;;;;5013234;28;20382;-78
2021/01/11 08:10:42;;;;;;;28.00;13.85;;;13.30;66.50;;;;;;5026668;28;21289;-75
2021/01/11 08:13:20;;;;;;;30.08;15.05;;;13.30;66.50;;;;;;5013099;28;20131;-76
2021/01/11 08:16:08;;;;;;;29.90;15.15;;;13.30;66.40;;;;;;5027454;28;20134;-74
2021/01/11 08:18:44;;;;;;;28.70;15.05;;;13.20;66.40;;;;;;5015013;28;20048;-75
2021/01/11 08:21:11;;;;;;;30.40;15.88;;;13.20;66.40;;;;;;5029838;28;20017;-76
2021/01/11 08:23:42;;;;;;;32.42;16.08;;;13.30;66.40;;;;;;5013881;28;20136;-76
2021/01/11 08:26:17;;;;;;;30.58;15.68;;;13.30;66.40;;;;;;5031266;28;20029;-74
2021/01/11 08:28:48;;;;;;;31.05;15.55;;;13.30;66.40;;;;;;5009288;28;20545;-73
2021/01/11 08:31:17;;;;;;;32.40;15.85;;;13.30;66.40;;;;;;5023912;28;20029;-73
2021/01/11 08:33:47;;;;;;;28.48;15.60;;;13.30;66.40;;;;;;5010545;28;20025;-74
2021/01/11 08:36:33;;;;;;;29.27;15.50;;;13.30;66.40;;;;;;5015354;28;20032;-73
2021/01/11 08:39:12;;;;;;;28.45;14.88;;;13.30;66.40;;;;;;5037835;28;20130;-73
2021/01/11 08:41:40;;;;;;;28.02;14.00;;;13.30;66.40;;;;;;5029286;28;20083;-73
2021/01/11 08:44:30;;;;;;;;;;;13.30;66.30;;;;;;5013609;28;20036;-74
2021/01/11 08:47:09;;;;;;;28.02;14.70;;;13.30;66.30;;;;;;5029073;28;20353;-75
2021/01/11 08:49:56;;;;;;;28.73;14.30;;;13.30;66.20;;;;;;5025390;28;20061;-75
2021/01/11 08:52:40;;;;;;;31.88;16.00;;;13.30;66.30;;;;;;5004317;28;20037;-75
2021/01/11 08:55:18;;;;;;;27.85;14.18;;;13.30;66.20;;;;;;5032738;28;20041;-75
2021/01/11 08:58:09;;;;;;;28.00;13.95;;;13.30;66.20;;;;;;5030509;28;20025;-76
2021/01/11 09:00:36;;;;;;;29.83;14.75;;;13.30;66.20;;;;;;5038137;28;20048;-75
2021/01/11 09:03:07;;;;;;;26.80;14.05;;;13.30;66.20;;;;;;5046383;28;20037;-77
2021/01/11 09:05:41;;;;;;;32.00;15.23;;;13.30;66.20;;;;;;5047683;28;20526;-76
2021/01/11 09:08:22;;;;;;;27.35;13.65;;;13.30;66.10;;;;;;5051378;28;20053;-73
2021/01/11 09:10:47;;;;;;;26.75;14.63;;;13.30;66.10;;;;;;5050988;28;20013;-74
2021/01/11 09:13:25;;;;;;;28.00;14.73;;;13.30;66.10;;;;;;5049489;28;20025;-74
2021/01/11 09:16:04;;;;;;;30.95;14.75;;;13.30;66.10;;;;;;5023873;28;20036;-74
2021/01/11 09:18:44;;;;;;;25.35;13.57;;;13.30;66.10;;;;;;5048720;28;20029;-74
2021/01/11 09:21:39;;;;;;;29.90;15.13;;;13.30;66.10;;;;;;5049464;28;20041;-74
2021/01/11 09:24:29;;;;;;;26.60;13.70;;;13.30;66.00;;;;;;5033753;28;20028;-73
2021/01/11 09:26:56;;;;;;;28.17;13.57;;;13.30;66.10;;;;;;5034231;28;20021;-73
2021/01/11 09:29:25;;;;;;;24.67;13.98;;;13.30;66.00;;;;;;5028603;28;20471;-75
2021/01/11 09:31:56;;;;;;;27.65;14.13;;;13.30;66.00;;;;;;5031033;28;20021;-73
2021/01/11 09:34:22;;;;;;;27.42;13.18;;;13.30;66.00;;;;;;5023770;28;20030;-73
2021/01/11 09:36:56;;;;;;;26.85;14.13;;;13.40;65.90;;;;;;5022968;28;20091;-75
2021/01/11 09:39:27;;;;;;;25.85;14.25;;;13.30;65.90;;;;;;5027190;28;20449;-73
2021/01/11 09:41:59;;;;;;;24.90;13.15;;;13.30;65.90;;;;;;5034276;28;20120;-74
2021/01/11 09:44:36;;;;;;;25.60;13.55;;;13.30;65.90;;;;;;5028948;28;20032;-73
2021/01/11 09:47:15;;;;;;;27.75;14.25;;;13.30;65.90;;;;;;5029310;28;20028;-74
2021/01/11 09:49:45;;;;;;;25.20;13.07;;;13.40;65.90;;;;;;5028234;28;20025;-73
2021/01/11 09:52:14;;;;;;;28.70;14.25;;;13.40;65.80;;;;;;5032243;28;20029;-76
2021/01/11 09:54:52;;;;;;;26.52;13.52;;;13.30;65.80;;;;;;5040575;28;20410;-74
2021/01/11 09:57:23;;;;;;;26.13;14.13;;;13.40;65.80;;;;;;5024773;28;20033;-76
2021/01/11 09:59:48;;;;;;;27.13;13.75;;;13.40;65.80;;;;;;5039857;28;20466;-75
2021/01/11 10:02:14;;;;;;;26.80;14.45;;;13.40;65.80;;;;;;5045774;28;20040;-75
2021/01/11 10:04:44;;;;;;;24.08;12.63;;;13.30;65.80;;;;;;5028062;28;20036;-74
2021/01/11 10:07:17;;;;;;;26.90;12.93;;;13.40;65.80;;;;;;5033555;28;20081;-75
2021/01/11 10:09:55;;;;;;;24.77;13.02;;;13.40;65.80;;;;;;5047444;28;20025;-75
2021/01/11 10:12:26;;;;;;;24.05;12.98;;;13.40;65.80;;;;;;5044387;28;20061;-74
2021/01/11 10:14:59;;;;;;;24.33;12.90;;;13.40;65.70;;;;;;5042356;28;20051;-75
2021/01/11 10:17:31;;;;;;;23.25;12.43;;;13.40;65.80;;;;;;5041172;28;20028;-75
2021/01/11 10:20:01;;;;;;;24.58;12.38;;;13.40;65.70;;;;;;5029141;28;20028;-74
2021/01/11 10:22:45;;;;;;;24.48;12.88;;;13.40;65.70;;;;;;5038522;28;20040;-74
2021/01/11 10:25:23;;;;;;;24.92;13.68;;;13.40;65.70;;;;;;5047980;28;20031;-74
2021/01/11 10:27:55;;;;;;;25.25;13.18;;;13.40;65.60;;;;;;5052748;28;20021;-75
2021/01/11 10:30:35;;;;;;;28.50;14.48;;;13.40;65.60;;;;;;5030101;28;20387;-74
2021/01/11 10:33:06;;;;;;;27.77;14.90;;;13.50;65.60;;;;;;5042290;28;20047;-74
2021/01/11 10:35:36;;;;;;;26.02;13.35;;;13.40;65.50;;;;;;5049144;28;20446;-75
2021/01/11 10:38:15;;;;;;;25.13;12.68;;;13.40;65.50;;;;;;5028999;28;20033;-76
2021/01/11 10:40:46;;;;;;;25.25;13.43;;;13.50;65.40;;;;;;5051280;28;20086;-75
2021/01/11 10:43:27;;;;;;;;;;;;;;;;;;;;;
2021/01/11 10:45:59;;;;;;;29.70;14.15;;;13.40;65.50;;;;;;5041285;28;20024;-74
2021/01/11 10:48:30;;;;;;;24.23;13.60;;;13.40;65.50;;;;;;5040737;28;20068;-75
2021/01/11 10:51:10;;;;;;;24.48;12.27;;;13.40;65.60;;;;;;5047957;28;20091;-74
2021/01/11 10:53:42;;;;;;;25.75;12.68;;;13.40;65.60;;;;;;5028717;28;20494;-75
2021/01/11 10:56:13;;;;;;;22.70;12.02;;;13.40;65.70;;;;;;5048835;28;20094;-75
2021/01/11 10:58:46;;;;;;;21.05;12.05;;;13.40;65.70;;;;;;5049936;28;20020;-74
2021/01/11 11:01:19;;;;;;;23.35;12.30;;;13.40;65.70;;;;;;5046415;28;20021;-74
2021/01/11 11:03:49;;;;;;;25.73;13.60;;;13.40;65.70;;;;;;5048350;28;20025;-75
2021/01/11 11:06:15;;;;;;;24.42;12.88;;;13.40;65.60;;;;;;5035713;28;20021;-75
2021/01/11 11:08:49;;;;;;;22.45;12.02;;;13.40;65.70;;;;;;5049610;28;20481;-74
2021/01/11 11:11:14;;;;;;;23.20;12.13;;;13.40;65.60;;;;;;5034485;28;20104;-75
2021/01/11 11:13:54;;;;;;;24.15;12.07;;;13.40;65.60;;;;;;5051569;28;20112;-75
2021/01/11 11:16:27;;;;;;;23.13;12.27;;;13.40;65.60;;;;;;5030820;28;20021;-73
2021/01/11 11:18:53;;;;;;;24.08;12.10;;;13.40;65.60;;;;;;5033057;28;20356;-73
2021/01/11 11:21:18;;;;;;;23.15;11.88;;;13.40;66.00;;;;;;5036590;28;20112;-72
2021/01/11 11:23:58;;;;;;;24.92;12.95;;;13.50;66.00;;;;;;5034880;28;20052;-72
2021/01/11 11:26:24;;;;;;;25.48;12.38;;;13.50;66.40;;;;;;5030954;28;20028;-74
2021/01/11 11:29:00;;;;;;;24.17;12.45;;;13.60;66.80;;;;;;5035283;28;20339;-75
2021/01/11 11:31:33;;;;;;;24.15;12.07;;;13.60;67.50;;;;;;5047583;28;20106;-73
2021/01/11 11:34:02;;;;;;;27.10;11.75;;;13.60;68.60;;;;;;5034494;28;20111;-74
2021/01/11 11:36:34;;;;;;;26.85;12.85;;;13.70;71.10;;;;;;5052358;28;20055;-73
2021/01/11 11:39:14;;;;;;;24.10;11.52;;;13.80;72.50;;;;;;5049644;28;20025;-74
2021/01/11 11:41:44;;;;;;;24.20;12.27;;;13.80;74.10;;;;;;5045818;28;20048;-73
2021/01/11 11:44:16;;;;;;;23.63;11.57;;;13.80;74.80;;;;;;5051095;28;20049;-75
2021/01/11 11:46:47;;;;;;;23.63;12.05;;;13.80;76.70;;;;;;5052574;28;20017;-74
2021/01/11 11:49:17;;;;;;;34.78;12.73;;;13.80;77.30;;;;;;5029666;28;20117;-73
2021/01/11 11:51:45;;;;;;;26.00;12.07;;;13.80;78.50;;;;;;5050862;28;20071;-73
2021/01/11 11:54:23;;;;;;;23.38;12.18;;;13.90;79.60;;;;;;5051187;28;20044;-73
2021/01/11 11:57:03;;;;;;;28.52;13.02;;;13.90;80.80;;;;;;5035432;28;20025;-74
2021/01/11 11:59:42;;;;;;;24.90;12.23;;;13.90;81.90;;;;;;5034050;28;20025;-73
2021/01/11 12:02:13;;;;;;;24.75;12.43;;;14.00;82.70;;;;;;5033100;28;20041;-74
2021/01/11 12:04:42;;;;;;;24.25;11.60;;;14.00;83.10;;;;;;5051809;28;20467;-74
2021/01/11 12:07:12;;;;;;;22.83;12.48;;;14.00;82.80;;;;;;5050124;28;20017;-76
2021/01/11 12:09:54;;;;;;;27.90;12.70;;;14.10;83.00;;;;;;5031932;28;20021;-76
2021/01/11 12:12:25;;;;;;;23.95;12.27;;;14.20;84.10;;;;;;5049471;28;20458;-74
2021/01/11 12:14:56;;;;;;;22.17;11.38;;;14.30;84.40;;;;;;5026059;28;20036;-73
2021/01/11 12:17:40;;;;;;;27.17;11.43;;;14.30;82.00;;;;;;5048593;28;20186;-74
2021/01/11 12:20:08;;;;;;;25.65;11.60;;;14.30;81.50;;;;;;5047289;28;20118;-75
2021/01/11 12:22:38;;;;;;;22.65;10.57;;;14.20;80.80;;;;;;5042867;28;20041;-75
2021/01/11 12:25:05;;;;;;;22.00;11.30;;;14.20;80.10;;;;;;5044816;28;20029;-75
2021/01/11 12:27:35;;;;;;;23.13;10.07;;;14.10;79.60;;;;;;5049660;28;20029;-73
2021/01/11 12:30:02;;;;;;;20.15;11.05;;;14.00;79.20;;;;;;5025185;28;20021;-76
2021/01/11 12:32:46;;;;;;;22.25;10.15;;;14.00;79.00;;;;;;5017421;28;20025;-75
2021/01/11 12:35:13;;;;;;;22.27;9.80;;;13.90;78.60;;;;;;5030410;28;20441;-76
2021/01/11 12:37:43;;;;;;;20.45;10.38;;;13.90;78.10;;;;;;5044085;28;20021;-75
2021/01/11 12:40:26;;;;;;;21.13;9.73;;;13.90;77.90;;;;;;5028558;28;20032;-75
2021/01/11 12:42:58;;;;;;;21.58;10.85;;;13.80;77.50;;;;;;5038409;28;20039;-75
2021/01/11 12:45:24;;;;;;;20.13;10.52;;;13.80;77.20;;;;;;5048082;28;20079;-75
2021/01/11 12:47:55;;;;;;;18.95;10.13;;;13.80;77.10;;;;;;5025770;28;20022;-75
2021/01/11 12:50:20;;;;;;;18.58;9.63;;;13.80;76.80;;;;;;5029758;28;20108;-75
2021/01/11 12:52:55;;;;;;;17.63;9.73;;;13.80;76.70;;;;;;5044804;28;20113;-75
2021/01/11 12:55:23;;;;;;;15.63;9.15;;;13.80;76.40;;;;;;5011518;28;20028;-75
2021/01/11 12:58:01;;;;;;;;;;;13.70;76.20;;;;;;5006237;28;20447;-75
2021/01/11 13:00:33;;;;;;;20.70;9.43;;;13.70;76.00;;;;;;5023364;28;19987;-75
2021/01/11 13:02:58;;;;;;;17.63;9.35;;;13.70;75.80;;;;;;5027412;28;20041;-75
2021/01/11 13:05:24;;;;;;;18.83;10.68;;;13.80;75.70;;;;;;5013741;28;20045;-75
2021/01/11 13:07:54;;;;;;;18.75;9.15;;;13.80;75.40;;;;;;5008834;28;20375;-75